Steelville, Pennsylvania
Current Conditions -  °F | °C
As of 10:55 AM on Friday 24 Oct 2014 (Local Time) from KMQS Reporting Station
Clear Clear  
Wind Chill: 59°   Ceiling: Unl
Heat Index: 59°   Visibility: 10mi
Dew Point: 45°   Wind: 20mph
Humidity: 59%   Direction: 330°NNW
Pressure: 29.9"   Gusts: 29mph
Location:  39.9°N, 75.99°W
Report Text: KMQS 241455Z AUTO 33017G25KT 10SM CLR 15/07 A2990 RMK AO2
Loading
Personal Weather Stations






























Interactive Weather Map
Tropical Storm Tracking
New forecast layout! Learn more

10-Day Weather Forecast

Advertisements
Track Severe Weather on mobile